createdAt,value
2019-04-09T01:04:07.640Z,4.95
2019-04-09T01:07:06.071Z,5.87
2019-04-09T01:09:47.648Z,5.55
2019-04-09T01:12:45.013Z,6.15
2019-04-09T01:15:46.124Z,6.35
2019-04-09T01:18:40.612Z,6.03
2019-04-09T01:21:25.754Z,5.28
2019-04-09T01:24:12.742Z,6.17
2019-04-09T01:27:28.906Z,6.33
2019-04-09T01:30:30.026Z,5.97
2019-04-09T01:33:28.943Z,6.87
2019-04-09T01:36:47.975Z,7.10
2019-04-09T01:39:44.840Z,6.22
2019-04-09T01:42:50.371Z,7.58
2019-04-09T01:45:55.027Z,8.20
2019-04-09T01:55:36.535Z,8.45
2019-04-09T01:58:31.571Z,7.97
2019-04-09T02:01:37.874Z,9.38
2019-04-09T02:04:46.480Z,8.93
2019-04-09T02:07:51.564Z,9.40
2019-04-09T02:10:51.774Z,10.28
2019-04-09T02:13:47.283Z,8.30
2019-04-09T02:16:43.761Z,9.65
2019-04-09T02:19:38.977Z,8.90
2019-04-09T02:22:53.448Z,10.10
2019-04-09T02:26:08.163Z,9.30
2019-04-09T02:29:31.186Z,10.20
2019-04-09T02:32:28.126Z,11.25
2019-04-09T02:36:10.085Z,7.72
2019-04-09T02:39:18.117Z,8.75
2019-04-09T02:45:50.773Z,9.13
2019-04-09T02:49:06.763Z,10.63
2019-04-09T02:52:13.779Z,9.00
2019-04-09T02:55:25.532Z,9.50
2019-04-09T02:58:36.699Z,10.78
2019-04-09T03:01:49.240Z,11.10
2019-04-09T03:05:09.702Z,12.53
2019-04-09T03:08:20.992Z,11.70
2019-04-09T03:11:49.898Z,13.80
2019-04-09T03:18:45.341Z,13.03
2019-04-09T03:25:51.284Z,13.45
2019-04-09T03:28:49.270Z,13.88
2019-04-09T03:31:40.113Z,12.50
2019-04-09T03:34:43.306Z,15.23
2019-04-09T03:37:54.651Z,13.20
2019-04-09T03:40:41.782Z,15.83
2019-04-09T03:43:37.802Z,12.30
2019-04-09T03:46:32.184Z,10.85
2019-04-09T03:49:24.675Z,10.90
2019-04-09T03:52:35.556Z,12.00
2019-04-09T03:55:35.062Z,10.68
2019-04-09T03:58:33.672Z,11.50
2019-04-09T04:01:35.070Z,10.85
2019-04-09T04:04:25.618Z,12.23
2019-04-09T04:07:33.463Z,11.15
2019-04-09T04:10:34.787Z,10.90
2019-04-09T04:28:33.170Z,12.25
2019-04-09T04:31:21.704Z,15.28
2019-04-09T04:34:18.847Z,13.80
2019-04-09T04:37:11.714Z,15.70
2019-04-09T04:40:11.081Z,17.00
2019-04-09T04:43:10.441Z,15.25
2019-04-09T04:46:13.877Z,15.35
2019-04-09T04:49:06.644Z,13.48
2019-04-09T04:52:23.724Z,14.85
2019-04-09T04:55:12.627Z,15.48
2019-04-09T04:58:06.354Z,16.57
2019-04-09T05:01:09.341Z,15.58
2019-04-09T05:03:55.295Z,14.28
2019-04-09T05:06:46.114Z,11.88
2019-04-09T05:09:39.859Z,13.75
2019-04-09T05:12:32.861Z,14.05
2019-04-09T05:18:55.691Z,15.63
2019-04-09T05:21:39.973Z,17.10
2019-04-09T05:24:38.588Z,15.35
2019-04-09T05:27:37.781Z,13.55
2019-04-09T05:30:21.485Z,14.55
2019-04-09T06:10:25.999Z,14.28
2019-04-09T06:20:38.745Z,15.90
2019-04-09T06:35:27.764Z,14.05
2019-04-09T06:38:52.248Z,15.03
2019-04-09T06:50:01.314Z,16.62
2019-04-09T06:56:44.107Z,15.32
2019-04-09T07:34:52.646Z,22.75
2019-04-09T08:09:02.723Z,27.80
2019-04-09T08:15:54.549Z,30.90
2019-04-09T08:19:12.610Z,30.23
2019-04-09T08:29:48.752Z,27.82
2019-04-09T08:33:08.871Z,29.65
2019-04-09T08:40:25.390Z,31.40
2019-04-09T08:43:51.960Z,32.73
2019-04-09T08:47:21.073Z,29.07
2019-04-09T08:50:45.807Z,30.90
2019-04-09T08:54:00.439Z,28.05
2019-04-09T08:57:15.407Z,27.70
2019-04-09T09:00:09.851Z,26.17
2019-04-09T09:03:29.127Z,28.02
2019-04-09T09:06:33.568Z,28.50
2019-04-09T09:10:03.951Z,26.00
2019-04-09T09:13:31.810Z,26.33
2019-04-09T09:16:49.978Z,26.97
2019-04-09T09:23:41.963Z,26.87
2019-04-09T09:26:56.058Z,25.35
2019-04-09T09:30:16.223Z,25.17
2019-04-09T09:33:28.805Z,26.62
2019-04-09T09:36:24.532Z,27.73
2019-04-09T09:47:12.721Z,25.02
2019-04-09T09:50:04.753Z,25.17
2019-04-09T09:53:32.363Z,25.68
2019-04-09T09:56:43.711Z,23.57
2019-04-09T10:02:56.993Z,25.35
2019-04-09T10:06:12.473Z,24.67
2019-04-09T10:08:58.323Z,27.48
2019-04-09T10:11:55.600Z,23.20
2019-04-09T10:14:45.919Z,24.82
2019-04-09T10:17:29.504Z,25.40
2019-04-09T10:20:12.366Z,24.02
2019-04-09T10:22:57.971Z,25.43
2019-04-09T10:26:01.972Z,26.35
2019-04-09T10:28:58.307Z,25.82
2019-04-09T10:31:53.711Z,27.40
2019-04-09T10:34:41.972Z,25.32
2019-04-09T10:37:59.116Z,24.30
2019-04-09T10:41:18.307Z,25.85
2019-04-09T10:44:24.941Z,26.02
2019-04-09T10:47:14.032Z,25.43
2019-04-09T10:50:35.861Z,25.32
2019-04-09T10:53:26.873Z,25.17
2019-04-09T10:56:17.785Z,25.40
2019-04-09T10:59:49.504Z,25.05
2019-04-09T11:02:59.874Z,24.95
2019-04-09T11:06:25.271Z,24.57
2019-04-09T11:09:59.666Z,23.77
2019-04-09T11:13:32.817Z,23.25
2019-04-09T11:16:39.548Z,21.87
2019-04-09T11:19:35.104Z,23.73
2019-04-09T11:22:40.640Z,22.58
2019-04-09T11:25:39.203Z,25.32
2019-04-09T11:28:30.247Z,24.60
2019-04-09T11:31:44.457Z,24.10
2019-04-09T11:34:39.602Z,26.27
2019-04-09T11:37:18.732Z,26.45
2019-04-09T11:40:16.822Z,26.00
2019-04-09T11:43:17.585Z,24.70
2019-04-09T11:46:11.042Z,28.02
2019-04-09T11:49:05.333Z,25.97
2019-04-09T11:52:01.838Z,28.40
2019-04-09T11:58:19.427Z,23.95
2019-04-09T12:01:06.061Z,26.40
2019-04-09T12:04:09.705Z,23.90
2019-04-09T12:07:11.668Z,25.95
2019-04-09T12:10:07.916Z,27.67
2019-04-09T12:12:58.028Z,23.87
2019-04-09T12:15:44.704Z,23.30
2019-04-09T12:18:31.618Z,23.45
2019-04-09T12:21:26.895Z,24.00
2019-04-09T12:24:18.735Z,25.90
2019-04-09T12:27:04.560Z,24.85
2019-04-09T12:29:57.311Z,25.40
2019-04-09T12:32:52.335Z,26.93
2019-04-09T12:35:57.318Z,24.67
2019-04-09T12:38:50.338Z,20.68
2019-04-09T12:41:46.245Z,23.00
2019-04-09T12:44:38.946Z,23.52
2019-04-09T12:47:28.172Z,23.85
2019-04-09T12:50:36.178Z,23.90
2019-04-09T12:53:45.803Z,22.77
2019-04-09T12:57:06.427Z,22.98
2019-04-09T13:00:09.869Z,26.27
2019-04-09T13:03:13.118Z,24.87
2019-04-09T13:06:03.242Z,24.77
2019-04-09T13:09:06.382Z,24.87
2019-04-09T13:12:08.371Z,25.40
2019-04-09T13:15:10.176Z,26.45
2019-04-09T13:18:13.247Z,24.87
2019-04-09T13:20:55.535Z,31.25
2019-04-09T13:24:07.182Z,27.90
2019-04-09T13:27:18.658Z,29.32
2019-04-09T13:30:17.863Z,26.12
2019-04-09T13:33:22.513Z,25.25
2019-04-09T13:36:05.113Z,24.55
2019-04-09T13:38:51.476Z,25.60
2019-04-09T13:42:00.329Z,20.82
2019-04-09T13:45:04.015Z,20.12
2019-04-09T13:48:14.333Z,21.33
2019-04-09T13:51:10.132Z,22.90
2019-04-09T13:53:57.311Z,24.02
2019-04-09T13:56:51.547Z,26.00
2019-04-09T13:59:50.176Z,24.02
2019-04-09T14:02:53.464Z,26.93
2019-04-09T14:09:01.559Z,26.93
2019-04-09T14:12:27.954Z,24.23
2019-04-09T14:15:11.885Z,25.57
2019-04-09T14:17:52.873Z,24.40
2019-04-09T14:20:31.710Z,23.40
2019-04-09T14:38:57.749Z,23.12
2019-04-09T14:42:20.100Z,23.20
2019-04-09T14:44:52.367Z,17.45
2019-04-09T14:47:24.465Z,16.90
2019-04-09T14:49:57.639Z,17.60
2019-04-09T14:52:34.349Z,18.95
2019-04-09T14:55:04.877Z,18.32
2019-04-09T14:57:36.909Z,17.50
2019-04-09T15:00:09.962Z,17.27
2019-04-09T15:02:41.094Z,18.75
2019-04-09T15:05:11.303Z,16.05
2019-04-09T15:07:41.939Z,17.17
2019-04-09T15:10:13.398Z,18.73
2019-04-09T15:12:44.887Z,17.20
2019-04-09T15:15:17.852Z,16.95
2019-04-09T15:17:48.324Z,16.80
2019-04-09T15:20:19.604Z,18.05
2019-04-09T15:22:50.091Z,17.15
2019-04-09T15:25:24.025Z,18.12
2019-04-09T15:28:07.049Z,18.70
2019-04-09T15:30:39.605Z,16.05
2019-04-09T15:33:25.011Z,16.60
2019-04-09T15:35:49.956Z,17.42
2019-04-09T15:38:20.541Z,17.00
2019-04-09T15:40:52.595Z,17.20
2019-04-09T15:43:24.594Z,17.10
2019-04-09T15:45:59.605Z,16.85
2019-04-09T15:48:41.080Z,17.80
2019-04-09T15:51:15.874Z,16.82
2019-04-09T15:53:49.144Z,17.62
2019-04-09T15:56:20.338Z,16.85
2019-04-09T15:58:52.734Z,16.48
2019-04-09T16:01:33.826Z,16.32
2019-04-09T16:04:07.424Z,17.52
2019-04-09T16:06:39.112Z,16.40
2019-04-09T16:09:18.744Z,15.58
2019-04-09T16:11:52.400Z,15.98
2019-04-09T16:14:26.460Z,16.60
2019-04-09T16:16:58.805Z,16.15
2019-04-09T16:19:32.679Z,17.60
2019-04-09T16:22:03.725Z,18.15
2019-04-09T16:24:36.647Z,16.75
2019-04-09T16:27:07.865Z,16.73
2019-04-09T16:29:42.143Z,16.12
2019-04-09T16:32:27.755Z,17.73
2019-04-09T16:35:04.339Z,19.90
2019-04-09T16:37:40.900Z,17.77
2019-04-09T16:40:17.005Z,19.27
2019-04-09T16:42:56.517Z,18.32
2019-04-09T16:45:28.817Z,19.10
2019-04-09T16:48:06.307Z,18.23
2019-04-09T16:50:43.968Z,18.52
2019-04-09T16:53:24.970Z,18.48
2019-04-09T16:56:00.158Z,18.00
2019-04-09T16:58:41.606Z,17.85
2019-04-09T17:01:54.006Z,17.40
2019-04-09T17:08:18.292Z,18.75
2019-04-09T17:44:46.802Z,24.00
2019-04-09T17:48:15.965Z,24.87
2019-04-09T17:50:52.800Z,23.27
2019-04-09T17:53:39.414Z,22.02
2019-04-09T17:57:01.549Z,24.82
2019-04-09T17:59:29.327Z,25.88
2019-04-09T18:02:00.019Z,24.00
2019-04-09T18:04:49.487Z,25.57
2019-04-09T18:07:13.598Z,25.27
2019-04-09T18:09:43.943Z,26.68
2019-04-09T18:12:14.648Z,23.47
2019-04-09T18:14:47.382Z,23.40
2019-04-09T18:17:19.354Z,25.85
2019-04-09T18:19:50.155Z,22.60
2019-04-09T18:22:21.052Z,26.95
2019-04-09T18:24:51.364Z,26.25
2019-04-09T18:27:21.497Z,26.82
2019-04-09T18:29:52.037Z,27.45
2019-04-09T18:32:24.064Z,27.15
2019-04-09T18:34:59.492Z,30.15
2019-04-09T18:38:14.696Z,28.40
2019-04-09T18:41:17.813Z,28.87
2019-04-09T18:44:26.892Z,29.50
2019-04-09T18:47:42.139Z,32.73
2019-04-09T18:50:12.639Z,28.07
2019-04-09T18:52:45.178Z,27.93
2019-04-09T18:55:16.031Z,27.62
2019-04-09T18:57:46.345Z,27.17
2019-04-09T19:00:39.353Z,26.02
2019-04-09T19:03:13.645Z,27.50
2019-04-09T19:05:45.095Z,27.65
2019-04-09T19:08:16.542Z,27.30
2019-04-09T19:10:48.020Z,26.68
2019-04-09T19:13:19.352Z,28.35
2019-04-09T19:15:51.330Z,30.27
2019-04-09T19:18:23.859Z,35.28
2019-04-09T19:20:56.501Z,32.70
2019-04-09T19:23:29.316Z,30.90
2019-04-09T19:25:58.631Z,28.40
2019-04-09T19:28:28.938Z,33.55
2019-04-09T19:31:00.808Z,34.90
2019-04-09T19:33:32.009Z,34.75
2019-04-09T19:36:02.602Z,30.43
2019-04-09T19:38:36.204Z,32.90
2019-04-09T19:41:08.281Z,31.97
2019-04-09T19:43:40.865Z,35.17
2019-04-09T19:46:14.227Z,33.20
2019-04-09T19:48:51.412Z,37.03
2019-04-09T19:51:22.112Z,35.80
2019-04-09T19:53:53.803Z,36.08
2019-04-09T19:56:27.460Z,39.48
2019-04-09T19:59:00.119Z,37.70
2019-04-09T20:01:32.777Z,35.95
2019-04-09T20:04:05.606Z,34.18
2019-04-09T20:06:35.873Z,33.50
2019-04-09T20:09:11.132Z,32.75
2019-04-09T20:11:41.575Z,29.40
2019-04-09T20:14:14.824Z,30.55
2019-04-09T20:16:47.499Z,29.75
2019-04-09T20:19:18.596Z,30.48
2019-04-09T20:21:48.828Z,29.25
2019-04-09T20:24:18.956Z,31.12
2019-04-09T20:26:49.313Z,33.83
2019-04-09T20:29:20.796Z,30.02
2019-04-09T20:31:51.532Z,29.40
2019-04-09T20:34:21.721Z,29.25
2019-04-09T20:36:51.874Z,33.83
2019-04-09T20:39:31.685Z,31.33
2019-04-09T20:41:54.553Z,30.92
2019-04-09T20:44:25.526Z,30.40
2019-04-09T20:46:56.151Z,30.90
2019-04-09T20:49:27.082Z,29.70
2019-04-09T20:51:59.684Z,29.32
2019-04-09T20:54:35.199Z,29.75
2019-04-09T20:57:05.416Z,29.37
2019-04-09T21:00:06.069Z,29.50
2019-04-09T21:02:36.758Z,29.50
2019-04-09T21:05:08.597Z,29.82
2019-04-09T21:07:40.349Z,29.25
2019-04-09T21:10:10.804Z,30.43
2019-04-09T21:12:44.564Z,29.77
2019-04-09T21:15:14.846Z,30.08
2019-04-09T21:17:46.346Z,30.05
2019-04-09T21:20:19.086Z,32.17
2019-04-09T21:22:49.418Z,29.87
2019-04-09T21:25:21.535Z,31.25
2019-04-09T21:27:52.825Z,31.57
2019-04-09T21:30:24.221Z,33.70
2019-04-09T21:32:54.910Z,29.95
2019-04-09T21:35:27.574Z,30.70
2019-04-09T21:38:00.909Z,35.35
2019-04-09T21:40:33.386Z,33.02
2019-04-09T21:43:03.641Z,33.02
2019-04-09T21:45:34.632Z,32.20
2019-04-09T21:48:05.155Z,33.23
2019-04-09T21:50:35.288Z,31.40
2019-04-09T21:53:08.944Z,31.10
2019-04-09T21:55:40.239Z,32.98
2019-04-09T21:58:10.733Z,33.80
2019-04-09T22:00:51.933Z,35.45
2019-04-09T22:03:28.547Z,31.48
2019-04-09T22:05:58.869Z,34.67
2019-04-09T22:08:30.106Z,31.82
2019-04-09T22:11:00.650Z,34.05
2019-04-09T22:13:37.167Z,31.33
2019-04-09T22:16:09.426Z,31.80
2019-04-09T22:18:40.685Z,31.50
2019-04-09T22:21:12.130Z,31.20
2019-04-09T22:23:54.861Z,35.15
2019-04-09T22:26:23.356Z,33.35
2019-04-09T22:28:54.107Z,34.18
2019-04-09T22:31:28.061Z,32.75
2019-04-09T22:33:59.458Z,32.28
2019-04-09T22:36:38.838Z,33.13
2019-04-09T22:39:09.501Z,35.68
2019-04-09T22:41:40.876Z,32.53
2019-04-09T22:44:12.099Z,32.38
2019-04-09T22:46:42.834Z,34.60
2019-04-09T22:49:17.831Z,34.33
2019-04-09T22:51:53.046Z,33.90
2019-04-09T22:54:23.423Z,32.95
2019-04-09T22:56:55.672Z,33.30
2019-04-09T22:59:26.327Z,32.30
2019-04-09T23:02:21.212Z,30.85
2019-04-09T23:05:13.600Z,32.90
2019-04-09T23:08:12.622Z,31.62
2019-04-09T23:10:57.055Z,30.00
2019-04-09T23:13:27.213Z,32.73
2019-04-09T23:15:57.680Z,33.48
2019-04-09T23:18:28.783Z,30.27
2019-04-09T23:20:59.599Z,31.60
2019-04-09T23:23:29.780Z,35.28
2019-04-09T23:26:05.570Z,32.15
2019-04-09T23:28:34.996Z,33.65
2019-04-09T23:31:06.274Z,34.92
2019-04-09T23:33:36.630Z,32.05
2019-04-09T23:36:07.726Z,35.48
2019-04-09T23:38:38.948Z,37.53
2019-04-09T23:41:10.265Z,38.80
2019-04-09T23:43:40.383Z,36.45
2019-04-09T23:46:10.964Z,36.93
2019-04-09T23:48:42.168Z,35.10
2019-04-09T23:51:12.492Z,36.30
2019-04-09T23:53:43.427Z,37.60
2019-04-09T23:56:13.683Z,34.65
2019-04-09T23:58:44.174Z,35.38
